createdAt,value
2023-03-16T00:02:00.359Z,97661.44
2023-03-16T00:04:47.523Z,97667.47
2023-03-16T00:07:33.011Z,97678.78
2023-03-16T00:10:20.654Z,97678.09
2023-03-16T00:13:09.090Z,97672.91
2023-03-16T00:15:57.040Z,97671.13
2023-03-16T00:18:42.323Z,97673.06
2023-03-16T00:21:27.633Z,97674.16
2023-03-16T00:24:13.294Z,97673.44
2023-03-16T00:26:58.639Z,97671.00
2023-03-16T00:29:46.945Z,97682.47
2023-03-16T00:32:36.340Z,97678.38
2023-03-16T00:35:21.745Z,97681.34
2023-03-16T00:38:07.383Z,97691.31
2023-03-16T00:40:53.529Z,97689.78
2023-03-16T00:43:41.936Z,97691.16
2023-03-16T00:46:28.018Z,97685.41
2023-03-16T00:49:13.509Z,97690.84
2023-03-16T00:51:58.855Z,97692.78
2023-03-16T00:54:46.546Z,97700.66
2023-03-16T00:57:31.983Z,97697.28
2023-03-16T01:00:20.809Z,97700.81
2023-03-16T01:03:06.604Z,97701.91
2023-03-16T01:05:51.879Z,97705.56
2023-03-16T01:08:38.830Z,97703.22
2023-03-16T01:11:25.629Z,97701.72
2023-03-16T01:14:11.435Z,97701.72
2023-03-16T01:16:59.193Z,97694.09
2023-03-16T01:19:44.899Z,97698.47
2023-03-16T01:22:30.314Z,97688.34
2023-03-16T01:25:15.884Z,97698.00
2023-03-16T01:28:01.786Z,97698.16
2023-03-16T01:30:47.327Z,97689.56
2023-03-16T01:33:34.123Z,97690.66
2023-03-16T01:36:20.462Z,97697.88
2023-03-16T01:39:12.928Z,97697.81
2023-03-16T01:42:02.281Z,97699.28
2023-03-16T01:45:02.026Z,97702.25
2023-03-16T01:47:52.221Z,97698.97
2023-03-16T01:50:37.600Z,97693.91
2023-03-16T01:53:26.974Z,97687.38
2023-03-16T01:56:18.518Z,97693.16
2023-03-16T01:59:10.104Z,97691.09
2023-03-16T02:01:57.020Z,97686.06
2023-03-16T02:05:07.197Z,97689.44
2023-03-16T02:07:59.252Z,97685.09
2023-03-16T02:10:45.854Z,97689.44
2023-03-16T02:13:34.064Z,97695.47
2023-03-16T02:16:22.660Z,97699.81
2023-03-16T02:19:17.031Z,97707.47
2023-03-16T02:22:06.480Z,97705.00
2023-03-16T02:24:54.026Z,97710.31
2023-03-16T02:27:53.287Z,97704.31
2023-03-16T02:30:38.943Z,97707.72
2023-03-16T02:33:28.607Z,97711.38
2023-03-16T02:36:16.773Z,97709.88
2023-03-16T02:39:03.379Z,97710.94
2023-03-16T02:41:52.863Z,97706.84
2023-03-16T02:44:41.851Z,97712.97
2023-03-16T02:47:38.950Z,97707.34
2023-03-16T02:50:24.668Z,97702.41
2023-03-16T02:53:10.060Z,97707.97
2023-03-16T02:55:55.432Z,97704.00
2023-03-16T02:58:40.865Z,97702.47
2023-03-16T03:01:32.616Z,97708.59
2023-03-16T03:04:18.122Z,97706.00
2023-03-16T03:07:05.332Z,97706.28
2023-03-16T03:10:03.026Z,97703.13
2023-03-16T03:12:49.696Z,97696.66
2023-03-16T03:15:35.474Z,97703.03
2023-03-16T03:18:28.308Z,97716.22
2023-03-16T03:21:14.162Z,97711.31
2023-03-16T03:23:59.988Z,97712.25
2023-03-16T03:26:45.498Z,97713.31
2023-03-16T03:29:37.312Z,97716.84
2023-03-16T03:32:22.550Z,97716.25
2023-03-16T03:35:09.077Z,97722.88
2023-03-16T03:37:54.553Z,97725.81
2023-03-16T03:40:39.937Z,97724.31
2023-03-16T03:43:25.321Z,97722.78
2023-03-16T03:46:11.253Z,97725.50
2023-03-16T03:49:01.463Z,97732.41
2023-03-16T03:51:48.385Z,97727.38
2023-03-16T03:54:36.702Z,97724.78
2023-03-16T03:57:27.187Z,97727.38
2023-03-16T04:00:13.756Z,97730.91
2023-03-16T04:03:00.829Z,97727.38
2023-03-16T04:05:52.899Z,97724.78
2023-03-16T04:08:38.154Z,97724.78
2023-03-16T04:11:27.900Z,97724.09
2023-03-16T04:14:13.198Z,97725.03
2023-03-16T04:16:59.701Z,97720.81
2023-03-16T04:19:45.644Z,97717.53
2023-03-16T04:22:34.169Z,97729.06
2023-03-16T04:25:20.466Z,97741.28
2023-03-16T04:28:07.625Z,97743.16
2023-03-16T04:30:56.221Z,97738.25
2023-03-16T04:33:48.173Z,97735.88
2023-03-16T04:36:34.239Z,97750.47
2023-03-16T04:39:20.829Z,97738.47
2023-03-16T04:42:06.779Z,97734.13
2023-03-16T04:44:52.395Z,97741.06
2023-03-16T04:47:39.444Z,97742.00
2023-03-16T04:50:25.517Z,97754.34
2023-03-16T04:53:13.674Z,97739.19
2023-03-16T04:56:00.227Z,97736.03
2023-03-16T04:58:47.784Z,97739.91
2023-03-16T05:01:33.288Z,97739.44
2023-03-16T05:04:22.126Z,97730.03
2023-03-16T05:07:07.809Z,97737.78
2023-03-16T05:09:56.195Z,97739.66
2023-03-16T05:12:41.996Z,97731.91
2023-03-16T05:15:27.701Z,97739.56
2023-03-16T05:18:21.767Z,97735.44
2023-03-16T05:21:07.592Z,97742.38
2023-03-16T05:24:09.369Z,97734.63
2023-03-16T05:26:55.273Z,97733.81
2023-03-16T05:29:46.769Z,97745.09
2023-03-16T05:32:32.162Z,97741.66
2023-03-16T05:35:17.747Z,97734.03
2023-03-16T05:38:05.095Z,97744.38
2023-03-16T05:40:54.178Z,97739.91
2023-03-16T05:43:52.173Z,97740.84
2023-03-16T05:46:39.205Z,97738.97
2023-03-16T05:49:25.620Z,97740.59
2023-03-16T05:52:11.474Z,97741.19
2023-03-16T05:54:57.635Z,97743.44
2023-03-16T05:57:43.031Z,97745.53
2023-03-16T06:00:30.209Z,97743.53
2023-03-16T06:03:35.241Z,97740.34
2023-03-16T06:06:22.629Z,97737.16
2023-03-16T06:09:13.851Z,97738.91
2023-03-16T06:12:00.186Z,97741.59
2023-03-16T06:14:45.591Z,97743.31
2023-03-16T06:17:31.803Z,97746.69
2023-03-16T06:20:17.557Z,97736.28
2023-03-16T06:23:04.910Z,97747.28
2023-03-16T06:25:51.172Z,97740.31
2023-03-16T06:28:39.802Z,97746.38
2023-03-16T06:31:25.150Z,97747.97
2023-03-16T06:34:10.524Z,97737.41
2023-03-16T06:36:56.949Z,97741.69
2023-03-16T06:39:42.461Z,97747.63
2023-03-16T06:42:27.790Z,97758.72
2023-03-16T06:45:13.460Z,97754.41
2023-03-16T06:47:59.148Z,97757.59
2023-03-16T06:50:46.687Z,97762.69
2023-03-16T06:53:36.744Z,97764.22
2023-03-16T06:56:22.862Z,97773.00
2023-03-16T06:59:08.783Z,97769.63
2023-03-16T07:01:55.816Z,97778.22
2023-03-16T07:04:42.071Z,97776.50
2023-03-16T07:07:27.747Z,97779.09
2023-03-16T07:10:16.159Z,97776.53
2023-03-16T07:13:01.514Z,97781.72
2023-03-16T07:15:46.797Z,97786.91
2023-03-16T07:18:32.471Z,97783.34
2023-03-16T07:21:18.663Z,97788.41
2023-03-16T07:24:06.402Z,97787.31
2023-03-16T07:26:55.711Z,97793.03
2023-03-16T07:29:47.062Z,97795.63
2023-03-16T07:32:32.876Z,97798.06
2023-03-16T07:35:19.105Z,97803.09
2023-03-16T07:38:05.161Z,97804.03
2023-03-16T07:40:54.451Z,97801.28
2023-03-16T07:43:41.352Z,97794.38
2023-03-16T07:46:28.296Z,97792.56
2023-03-16T07:49:14.040Z,97796.75
2023-03-16T07:51:59.379Z,97797.81
2023-03-16T07:54:53.594Z,97797.94
2023-03-16T07:57:39.939Z,97796.22
2023-03-16T08:00:25.818Z,97791.63
2023-03-16T08:03:11.878Z,97783.31
2023-03-16T08:05:57.913Z,97780.50
2023-03-16T08:08:43.653Z,97795.06
2023-03-16T08:11:35.551Z,97788.81
2023-03-16T08:14:22.472Z,97792.19
2023-03-16T08:17:23.400Z,97778.59
2023-03-16T08:20:14.947Z,97785.22
2023-03-16T08:23:01.505Z,97785.63
2023-03-16T08:25:55.983Z,97782.78
2023-03-16T08:28:42.535Z,97790.50
2023-03-16T08:31:30.552Z,97790.41
2023-03-16T08:34:25.318Z,97786.84
2023-03-16T08:37:11.673Z,97778.25
2023-03-16T08:39:58.409Z,97784.97
2023-03-16T08:42:44.974Z,97781.25
2023-03-16T08:45:30.791Z,97774.66
2023-03-16T08:48:16.136Z,97775.66
2023-03-16T08:51:05.843Z,97776.69
2023-03-16T08:53:51.738Z,97777.84
2023-03-16T08:56:37.402Z,97774.75
2023-03-16T08:59:29.677Z,97772.63
2023-03-16T09:02:16.734Z,97764.31
2023-03-16T09:05:02.332Z,97769.88
2023-03-16T09:07:48.965Z,97773.13
2023-03-16T09:10:35.381Z,97771.78
2023-03-16T09:13:21.007Z,97761.63
2023-03-16T09:16:07.931Z,97768.00
2023-03-16T09:18:54.122Z,97767.13
2023-03-16T09:21:39.864Z,97768.72
2023-03-16T09:24:25.986Z,97769.84
2023-03-16T09:27:12.172Z,97762.72
2023-03-16T09:29:59.492Z,97756.22
2023-03-16T09:32:47.961Z,97755.28
2023-03-16T09:35:35.151Z,97752.28
2023-03-16T09:38:22.039Z,97753.84
2023-03-16T09:41:47.458Z,97761.63
2023-03-16T09:44:56.560Z,97751.97
2023-03-16T09:47:46.179Z,97754.16
2023-03-16T09:50:48.125Z,97755.38
2023-03-16T09:53:39.134Z,97752.31
2023-03-16T09:56:36.452Z,97751.22
2023-03-16T09:59:22.669Z,97749.63
2023-03-16T10:02:33.561Z,97751.59
2023-03-16T10:05:22.994Z,97744.53
2023-03-16T10:08:20.576Z,97749.31
2023-03-16T10:11:24.170Z,97757.28
2023-03-16T10:14:17.544Z,97747.66
2023-03-16T10:17:21.224Z,97748.53
2023-03-16T10:20:14.923Z,97740.09
2023-03-16T10:23:21.383Z,97741.75
2023-03-16T10:26:14.109Z,97739.34
2023-03-16T10:29:01.128Z,97736.81
2023-03-16T10:31:46.375Z,97736.31
2023-03-16T10:34:32.315Z,97736.81
2023-03-16T10:37:18.269Z,97730.69
2023-03-16T10:40:09.176Z,97730.59
2023-03-16T10:42:55.017Z,97730.97
2023-03-16T10:45:42.693Z,97745.47
2023-03-16T10:48:28.605Z,97738.03
2023-03-16T10:51:17.650Z,97746.28
2023-03-16T10:54:27.524Z,97727.81
2023-03-16T10:57:34.248Z,97732.13
2023-03-16T11:00:29.034Z,97737.25
2023-03-16T11:03:25.820Z,97731.31
2023-03-16T11:06:20.848Z,97727.41
2023-03-16T11:09:22.883Z,97721.09
2023-03-16T11:12:21.720Z,97717.00
2023-03-16T11:15:25.241Z,97723.25
2023-03-16T11:18:26.824Z,97721.78
2023-03-16T11:21:17.332Z,97712.22
2023-03-16T11:24:05.794Z,97713.22
2023-03-16T11:26:55.777Z,97707.56
2023-03-16T11:29:52.798Z,97711.22
2023-03-16T11:32:40.384Z,97700.25
2023-03-16T11:35:58.695Z,97703.69
2023-03-16T11:38:58.456Z,97697.41
2023-03-16T11:42:12.658Z,97694.19
2023-03-16T11:45:20.065Z,97692.56
2023-03-16T11:48:22.106Z,97681.19
2023-03-16T11:51:22.686Z,97682.41
2023-03-16T11:54:25.134Z,97681.81
2023-03-16T11:57:29.062Z,97677.97
2023-03-16T12:00:27.396Z,97672.78
2023-03-16T12:03:31.593Z,97678.47
2023-03-16T12:07:01.101Z,97678.09
2023-03-16T12:10:26.603Z,97667.97
2023-03-16T12:13:18.238Z,97662.13
2023-03-16T12:16:39.106Z,97654.88
2023-03-16T12:19:56.788Z,97654.50
2023-03-16T12:22:58.310Z,97643.75
2023-03-16T12:25:47.634Z,97641.31
2023-03-16T12:28:33.533Z,97638.66
2023-03-16T12:31:31.812Z,97627.69
2023-03-16T12:34:44.342Z,97631.78
2023-03-16T12:38:09.012Z,97621.22
2023-03-16T12:41:27.059Z,97621.66
2023-03-16T12:44:26.691Z,97618.63
2023-03-16T12:47:28.374Z,97613.72
2023-03-16T12:50:16.912Z,97606.03
2023-03-16T12:53:05.783Z,97610.91
2023-03-16T12:55:51.621Z,97603.19
2023-03-16T12:58:41.889Z,97603.81
2023-03-16T13:01:30.602Z,97604.00
2023-03-16T13:04:41.647Z,97613.34
2023-03-16T13:07:31.184Z,97611.13
2023-03-16T13:10:20.796Z,97609.69
2023-03-16T13:13:16.139Z,97611.13
2023-03-16T13:16:24.639Z,97602.59
2023-03-16T13:19:28.986Z,97596.50
2023-03-16T13:22:23.157Z,97598.31
2023-03-16T13:25:15.389Z,97589.97
2023-03-16T13:28:01.196Z,97599.47
2023-03-16T13:30:48.984Z,97596.22
2023-03-16T13:33:38.272Z,97601.91
2023-03-16T13:36:27.843Z,97601.06
2023-03-16T13:39:16.731Z,97599.88
2023-03-16T13:42:17.965Z,97595.78
2023-03-16T13:45:22.477Z,97581.16
2023-03-16T13:48:12.592Z,97582.97
2023-03-16T13:50:58.655Z,97582.94
2023-03-16T13:53:44.764Z,97586.38
2023-03-16T13:56:33.024Z,97581.69
2023-03-16T13:59:20.100Z,97578.59
2023-03-16T14:02:17.969Z,97586.81
2023-03-16T14:05:18.864Z,97573.50
2023-03-16T14:08:05.048Z,97574.50
2023-03-16T14:10:54.492Z,97566.94
2023-03-16T14:13:39.898Z,97561.16
2023-03-16T14:16:28.509Z,97550.28
2023-03-16T14:19:22.655Z,97557.09
2023-03-16T14:22:19.697Z,97559.66
2023-03-16T14:25:06.882Z,97543.31
2023-03-16T14:28:06.342Z,97543.91
2023-03-16T14:30:54.331Z,97542.38
2023-03-16T14:33:42.864Z,97534.16
2023-03-16T14:36:38.403Z,97532.34
2023-03-16T14:39:27.301Z,97524.00
2023-03-16T14:42:24.854Z,97533.16
2023-03-16T14:45:13.534Z,97525.31
2023-03-16T14:48:10.764Z,97524.59
2023-03-16T14:50:59.658Z,97528.13
2023-03-16T14:53:44.931Z,97513.34
2023-03-16T14:56:35.448Z,97519.72
2023-03-16T14:59:21.628Z,97526.38
2023-03-16T15:02:17.033Z,97524.94
2023-03-16T15:05:03.730Z,97530.28
2023-03-16T15:07:54.692Z,97524.50
2023-03-16T15:10:40.803Z,97535.69
2023-03-16T15:13:42.439Z,97531.66
2023-03-16T15:16:28.012Z,97528.06
2023-03-16T15:19:13.551Z,97527.88
2023-03-16T15:22:01.557Z,97529.38
2023-03-16T15:24:47.751Z,97517.88
2023-03-16T15:27:36.316Z,97511.16
2023-03-16T15:30:28.711Z,97506.84
2023-03-16T15:33:14.823Z,97501.69
2023-03-16T15:36:02.423Z,97504.44
2023-03-16T15:38:54.406Z,97505.91
2023-03-16T15:41:47.481Z,97509.63
2023-03-16T15:44:33.362Z,97502.81
2023-03-16T15:47:18.826Z,97499.19
2023-03-16T15:50:05.089Z,97497.78
2023-03-16T15:52:58.182Z,97505.34
2023-03-16T15:55:47.152Z,97495.00
2023-03-16T15:58:36.323Z,97495.19
2023-03-16T16:01:25.698Z,97491.75
2023-03-16T16:04:19.670Z,97479.38
2023-03-16T16:07:11.477Z,97483.47
2023-03-16T16:09:57.254Z,97475.13
2023-03-16T16:12:51.932Z,97473.31
2023-03-16T16:15:38.358Z,97470.28
2023-03-16T16:18:36.498Z,97467.66
2023-03-16T16:21:25.091Z,97461.38
2023-03-16T16:24:10.960Z,97466.44
2023-03-16T16:26:56.691Z,97461.38
2023-03-16T16:29:42.109Z,97457.72
2023-03-16T16:32:28.004Z,97469.09
2023-03-16T16:35:15.886Z,97467.44
2023-03-16T16:38:01.422Z,97473.72
2023-03-16T16:40:47.643Z,97479.16
2023-03-16T16:43:46.950Z,97480.97
2023-03-16T16:46:40.705Z,97476.88
2023-03-16T16:49:31.117Z,97479.69
2023-03-16T16:52:17.649Z,97472.59
2023-03-16T16:55:03.523Z,97479.44
2023-03-16T16:57:56.729Z,97478.22
2023-03-16T17:00:44.507Z,97478.75
2023-03-16T17:03:30.449Z,97489.47
2023-03-16T17:06:18.365Z,97483.97
2023-03-16T17:09:03.641Z,97481.53
2023-03-16T17:11:49.185Z,97485.72
2023-03-16T17:14:35.435Z,97488.50
2023-03-16T17:17:22.201Z,97492.13
2023-03-16T17:20:48.092Z,97498.72
2023-03-16T17:23:35.374Z,97508.91
2023-03-16T17:26:23.388Z,97503.31
2023-03-16T17:29:27.169Z,97499.13
2023-03-16T17:32:23.129Z,97497.00
2023-03-16T17:35:15.940Z,97506.56
2023-03-16T17:38:01.401Z,97501.94
2023-03-16T17:40:46.987Z,97498.13
2023-03-16T17:43:32.604Z,97495.94
2023-03-16T17:46:20.568Z,97490.19
2023-03-16T17:49:13.878Z,97489.81
2023-03-16T17:51:59.751Z,97491.09
2023-03-16T17:54:47.102Z,97491.56
2023-03-16T17:57:34.092Z,97502.88
2023-03-16T18:00:42.326Z,97495.00
2023-03-16T18:03:30.541Z,97494.28
2023-03-16T18:06:23.027Z,97496.97
2023-03-16T18:09:08.928Z,97499.50
2023-03-16T18:11:54.515Z,97498.38
2023-03-16T18:14:41.304Z,97493.69
2023-03-16T18:17:32.407Z,97495.38
2023-03-16T18:20:36.579Z,97497.25
2023-03-16T18:23:27.059Z,97496.31
2023-03-16T18:26:12.918Z,97496.75
2023-03-16T18:28:59.369Z,97500.59
2023-03-16T18:31:46.634Z,97502.81
2023-03-16T18:34:34.739Z,97505.19
2023-03-16T18:37:23.562Z,97510.44
2023-03-16T18:40:13.254Z,97505.91
2023-03-16T18:42:58.985Z,97503.00
2023-03-16T18:45:45.970Z,97507.28
2023-03-16T18:48:34.196Z,97502.56
2023-03-16T18:51:20.415Z,97504.88
2023-03-16T18:54:21.132Z,97493.63
2023-03-16T18:57:16.498Z,97498.53
2023-03-16T19:00:02.097Z,97496.59
2023-03-16T19:02:57.437Z,97498.25
2023-03-16T19:05:43.139Z,97490.94
2023-03-16T19:08:29.485Z,97488.66
2023-03-16T19:11:16.007Z,97490.78
2023-03-16T19:14:01.441Z,97492.91
2023-03-16T19:16:47.451Z,97496.22
2023-03-16T19:19:33.132Z,97494.09
2023-03-16T19:22:21.331Z,97493.78
2023-03-16T19:25:11.645Z,97492.66
2023-03-16T19:27:57.792Z,97479.63
2023-03-16T19:30:43.778Z,97483.06
2023-03-16T19:33:29.484Z,97464.97
2023-03-16T19:36:25.220Z,97459.75
2023-03-16T19:39:15.590Z,97457.44
2023-03-16T19:42:01.414Z,97456.97
2023-03-16T19:44:49.488Z,97460.25
2023-03-16T19:47:35.348Z,97458.63
2023-03-16T19:50:26.283Z,97460.09
2023-03-16T19:53:18.376Z,97461.22
2023-03-16T19:56:04.775Z,97461.53
2023-03-16T19:58:53.543Z,97455.53
2023-03-16T20:01:38.939Z,97459.94
2023-03-16T20:04:26.692Z,97459.94
2023-03-16T20:07:16.616Z,97459.28
2023-03-16T20:10:02.307Z,97467.41
2023-03-16T20:12:50.654Z,97468.91
2023-03-16T20:15:37.611Z,97447.84
2023-03-16T20:18:23.705Z,97445.56
2023-03-16T20:21:15.354Z,97446.72
2023-03-16T20:24:01.661Z,97466.13
2023-03-16T20:26:51.311Z,97453.06
2023-03-16T20:29:37.546Z,97461.38
2023-03-16T20:32:25.488Z,97451.56
2023-03-16T20:35:20.017Z,97451.41
2023-03-16T20:38:11.545Z,97444.88
2023-03-16T20:40:57.844Z,97452.19
2023-03-16T20:43:44.362Z,97442.91
2023-03-16T20:46:32.477Z,97450.06
2023-03-16T20:49:29.593Z,97452.34
2023-03-16T20:52:24.170Z,97450.06
2023-03-16T20:55:13.560Z,97444.47
2023-03-16T20:57:59.122Z,97441.53
2023-03-16T21:00:45.685Z,97436.81
2023-03-16T21:03:33.470Z,97439.91
2023-03-16T21:06:23.707Z,97449.81
2023-03-16T21:09:08.989Z,97448.50
2023-03-16T21:11:54.413Z,97446.50
2023-03-16T21:14:40.256Z,97444.41
2023-03-16T21:17:30.832Z,97447.59
2023-03-16T21:20:19.285Z,97443.69
2023-03-16T21:23:04.562Z,97440.91
2023-03-16T21:25:51.942Z,97449.19
2023-03-16T21:28:37.632Z,97447.03
2023-03-16T21:31:24.379Z,97448.47
2023-03-16T21:34:26.291Z,97445.50
2023-03-16T21:37:16.727Z,97437.34
2023-03-16T21:40:02.241Z,97436.16
2023-03-16T21:42:48.018Z,97430.31
2023-03-16T21:45:33.703Z,97428.69
2023-03-16T21:48:30.123Z,97433.72
2023-03-16T21:51:18.784Z,97436.84
2023-03-16T21:54:07.907Z,97434.06
2023-03-16T21:56:54.811Z,97424.63
2023-03-16T21:59:40.188Z,97429.19
2023-03-16T22:02:27.841Z,97435.53
2023-03-16T22:05:33.634Z,97426.38
2023-03-16T22:08:28.432Z,97428.47
2023-03-16T22:11:19.699Z,97425.34
2023-03-16T22:14:05.182Z,97424.19
2023-03-16T22:16:50.635Z,97424.28
2023-03-16T22:19:37.105Z,97427.34
2023-03-16T22:22:22.687Z,97429.28
2023-03-16T22:25:17.248Z,97426.03
2023-03-16T22:28:03.357Z,97419.78
2023-03-16T22:30:49.180Z,97420.25
2023-03-16T22:33:37.678Z,97426.25
2023-03-16T22:36:26.257Z,97420.41
2023-03-16T22:39:12.971Z,97420.41
2023-03-16T22:41:58.463Z,97424.94
2023-03-16T22:44:43.760Z,97421.53
2023-03-16T22:47:33.447Z,97422.31
2023-03-16T22:50:21.995Z,97421.38
2023-03-16T22:53:10.800Z,97421.38
2023-03-16T22:55:57.065Z,97421.53
2023-03-16T22:58:52.451Z,97419.88
2023-03-16T23:01:49.661Z,97428.59
2023-03-16T23:04:35.077Z,97420.41
2023-03-16T23:07:20.355Z,97417.97
2023-03-16T23:10:07.315Z,97420.84
2023-03-16T23:12:54.098Z,97423.47
2023-03-16T23:15:39.854Z,97417.31
2023-03-16T23:18:26.570Z,97418.25
2023-03-16T23:21:15.367Z,97414.84
2023-03-16T23:24:04.268Z,97415.66
2023-03-16T23:26:51.923Z,97413.22
2023-03-16T23:29:37.641Z,97414.03
2023-03-16T23:32:22.831Z,97407.78
2023-03-16T23:35:18.144Z,97412.78
2023-03-16T23:38:03.795Z,97417.59
2023-03-16T23:40:49.804Z,97422.13
2023-03-16T23:43:35.296Z,97424.22
2023-03-16T23:46:23.430Z,97415.59
2023-03-16T23:49:24.327Z,97411.38
2023-03-16T23:52:09.984Z,97421.59
2023-03-16T23:55:01.325Z,97413.00
2023-03-16T23:57:47.039Z,97404.97
